sensor_id;sensor_type;location;lat;lon;timestamp;P1;P2;P0
77699;PMS5003;66867;42.658;23.320;2023-06-05T00:00:00;26;26;
77699;PMS5003;66867;42.658;23.320;2023-06-05T00:01:00;27;27;
77699;PMS5003;66867;42.658;23.320;2023-06-05T00:02:00;26;24;
77699;PMS5003;66867;42.658;23.320;2023-06-05T00:03:00;26;26;
77699;PMS5003;66867;42.658;23.320;2023-06-05T00:04:00;26;26;
77699;PMS5003;66867;42.658;23.320;2023-06-05T00:05:00;30;30;
77699;PMS5003;66867;42.658;23.320;2023-06-05T00:06:00;30;30;
77699;PMS5003;66867;42.658;23.320;2023-06-05T00:07:00;25;24;
77699;PMS5003;66867;42.658;23.320;2023-06-05T00:08:00;24;22;
77699;PMS5003;66867;42.658;23.320;2023-06-05T00:09:00;27;27;
77699;PMS5003;66867;42.658;23.320;2023-06-05T00:10:00;25;25;
77699;PMS5003;66867;42.658;23.320;2023-06-05T00:11:00;25;24;
77699;PMS5003;66867;42.658;23.320;2023-06-05T00:12:00;28;25;
77699;PMS5003;66867;42.658;23.320;2023-06-05T00:13:00;25;25;
77699;PMS5003;66867;42.658;23.320;2023-06-05T00:14:00;27;27;
77699;PMS5003;66867;42.658;23.320;2023-06-05T00:15:00;29;28;
77699;PMS5003;66867;42.658;23.320;2023-06-05T00:16:00;25;25;
77699;PMS5003;66867;42.658;23.320;2023-06-05T00:17:00;26;26;
77699;PMS5003;66867;42.658;23.320;2023-06-05T00:18:00;25;25;
77699;PMS5003;66867;42.658;23.320;2023-06-05T00:19:02;28;27;
77699;PMS5003;66867;42.658;23.320;2023-06-05T00:20:00;28;27;
77699;PMS5003;66867;42.658;23.320;2023-06-05T00:21:00;27;27;
77699;PMS5003;66867;42.658;23.320;2023-06-05T00:22:00;27;26;
77699;PMS5003;66867;42.658;23.320;2023-06-05T00:23:00;26;25;
77699;PMS5003;66867;42.658;23.320;2023-06-05T00:24:00;27;26;
77699;PMS5003;66867;42.658;23.320;2023-06-05T00:25:00;23;23;
77699;PMS5003;66867;42.658;23.320;2023-06-05T00:26:00;27;27;
77699;PMS5003;66867;42.658;23.320;2023-06-05T00:27:00;24;24;
77699;PMS5003;66867;42.658;23.320;2023-06-05T00:28:00;25;24;
77699;PMS5003;66867;42.658;23.320;2023-06-05T00:29:00;27;27;
77699;PMS5003;66867;42.658;23.320;2023-06-05T00:30:00;31;30;
77699;PMS5003;66867;42.658;23.320;2023-06-05T00:31:01;31;28;
77699;PMS5003;66867;42.658;23.320;2023-06-05T00:32:00;27;26;
77699;PMS5003;66867;42.658;23.320;2023-06-05T00:33:00;26;26;
77699;PMS5003;66867;42.658;23.320;2023-06-05T00:34:00;26;25;
77699;PMS5003;66867;42.658;23.320;2023-06-05T00:35:00;26;26;
77699;PMS5003;66867;42.658;23.320;2023-06-05T00:36:00;27;27;
77699;PMS5003;66867;42.658;23.320;2023-06-05T00:37:00;26;26;
77699;PMS5003;66867;42.658;23.320;2023-06-05T00:38:00;27;27;
77699;PMS5003;66867;42.658;23.320;2023-06-05T00:39:00;25;25;
77699;PMS5003;66867;42.658;23.320;2023-06-05T00:40:00;26;26;
77699;PMS5003;66867;42.658;23.320;2023-06-05T00:41:01;25;24;
77699;PMS5003;66867;42.658;23.320;2023-06-05T00:42:00;24;23;
77699;PMS5003;66867;42.658;23.320;2023-06-05T00:43:00;26;26;
77699;PMS5003;66867;42.658;23.320;2023-06-05T00:44:00;25;24;
77699;PMS5003;66867;42.658;23.320;2023-06-05T00:45:00;24;24;
77699;PMS5003;66867;42.658;23.320;2023-06-05T00:46:02;27;26;
77699;PMS5003;66867;42.658;23.320;2023-06-05T00:47:01;27;27;
77699;PMS5003;66867;42.658;23.320;2023-06-05T00:48:00;22;21;
77699;PMS5003;66867;42.658;23.320;2023-06-05T00:49:00;23;23;
77699;PMS5003;66867;42.658;23.320;2023-06-05T00:50:01;24;24;
77699;PMS5003;66867;42.658;23.320;2023-06-05T00:51:00;23;23;
77699;PMS5003;66867;42.658;23.320;2023-06-05T00:52:00;24;24;
77699;PMS5003;66867;42.658;23.320;2023-06-05T00:53:01;25;24;
77699;PMS5003;66867;42.658;23.320;2023-06-05T00:54:00;27;26;
77699;PMS5003;66867;42.658;23.320;2023-06-05T00:55:01;25;25;
77699;PMS5003;66867;42.658;23.320;2023-06-05T00:56:00;28;28;
77699;PMS5003;66867;42.658;23.320;2023-06-05T00:57:00;25;25;
77699;PMS5003;66867;42.658;23.320;2023-06-05T00:58:01;21;21;
77699;PMS5003;66867;42.658;23.320;2023-06-05T00:59:00;25;23;
77699;PMS5003;66867;42.658;23.320;2023-06-05T01:00:01;25;25;
77699;PMS5003;66867;42.658;23.320;2023-06-05T01:01:02;23;23;
77699;PMS5003;66867;42.658;23.320;2023-06-05T01:02:00;26;25;
77699;PMS5003;66867;42.658;23.320;2023-06-05T01:03:00;22;20;
77699;PMS5003;66867;42.658;23.320;2023-06-05T01:04:01;27;26;
77699;PMS5003;66867;42.658;23.320;2023-06-05T01:05:00;28;24;
77699;PMS5003;66867;42.658;23.320;2023-06-05T01:06:00;22;22;
77699;PMS5003;66867;42.658;23.320;2023-06-05T01:07:00;26;26;
77699;PMS5003;66867;42.658;23.320;2023-06-05T01:08:00;24;24;
77699;PMS5003;66867;42.658;23.320;2023-06-05T01:09:00;25;25;
77699;PMS5003;66867;42.658;23.320;2023-06-05T01:10:01;23;22;
77699;PMS5003;66867;42.658;23.320;2023-06-05T01:11:01;23;22;
77699;PMS5003;66867;42.658;23.320;2023-06-05T01:12:10;25;25;
77699;PMS5003;66867;42.658;23.320;2023-06-05T01:13:04;26;26;
77699;PMS5003;66867;42.658;23.320;2023-06-05T01:14:06;26;24;
77699;PMS5003;66867;42.658;23.320;2023-06-05T01:15:02;25;24;
77699;PMS5003;66867;42.658;23.320;2023-06-05T01:16:00;24;24;
77699;PMS5003;66867;42.658;23.320;2023-06-05T01:17:01;26;26;
77699;PMS5003;66867;42.658;23.320;2023-06-05T01:18:00;25;25;
77699;PMS5003;66867;42.658;23.320;2023-06-05T01:19:00;25;24;
77699;PMS5003;66867;42.658;23.320;2023-06-05T01:20:00;27;25;
77699;PMS5003;66867;42.658;23.320;2023-06-05T01:21:00;23;23;
77699;PMS5003;66867;42.658;23.320;2023-06-05T01:22:01;23;23;
77699;PMS5003;66867;42.658;23.320;2023-06-05T01:23:02;24;24;
77699;PMS5003;66867;42.658;23.320;2023-06-05T01:24:00;26;23;
77699;PMS5003;66867;42.658;23.320;2023-06-05T01:25:01;25;24;
77699;PMS5003;66867;42.658;23.320;2023-06-05T01:26:02;22;22;
77699;PMS5003;66867;42.658;23.320;2023-06-05T01:28:07;22;22;
77699;PMS5003;66867;42.658;23.320;2023-06-05T01:29:01;23;23;
77699;PMS5003;66867;42.658;23.320;2023-06-05T01:30:01;25;23;
77699;PMS5003;66867;42.658;23.320;2023-06-05T01:31:06;24;24;
77699;PMS5003;66867;42.658;23.320;2023-06-05T01:32:05;23;23;
77699;PMS5003;66867;42.658;23.320;2023-06-05T01:33:07;23;23;
77699;PMS5003;66867;42.658;23.320;2023-06-05T01:34:03;23;23;
77699;PMS5003;66867;42.658;23.320;2023-06-05T01:35:00;23;23;
77699;PMS5003;66867;42.658;23.320;2023-06-05T01:36:02;25;24;
77699;PMS5003;66867;42.658;23.320;2023-06-05T01:37:01;22;20;
77699;PMS5003;66867;42.658;23.320;2023-06-05T01:38:01;27;25;
77699;PMS5003;66867;42.658;23.320;2023-06-05T01:39:01;27;26;
77699;PMS5003;66867;42.658;23.320;2023-06-05T01:40:01;23;23;
77699;PMS5003;66867;42.658;23.320;2023-06-05T01:41:02;27;27;
77699;PMS5003;66867;42.658;23.320;2023-06-05T01:42:01;22;22;
77699;PMS5003;66867;42.658;23.320;2023-06-05T01:43:01;23;22;
77699;PMS5003;66867;42.658;23.320;2023-06-05T01:44:00;25;24;
77699;PMS5003;66867;42.658;23.320;2023-06-05T01:45:01;23;23;
77699;PMS5003;66867;42.658;23.320;2023-06-05T01:46:00;24;23;
77699;PMS5003;66867;42.658;23.320;2023-06-05T01:47:01;27;26;
77699;PMS5003;66867;42.658;23.320;2023-06-05T01:48:00;26;26;
77699;PMS5003;66867;42.658;23.320;2023-06-05T01:49:00;23;22;
77699;PMS5003;66867;42.658;23.320;2023-06-05T01:50:00;25;24;
77699;PMS5003;66867;42.658;23.320;2023-06-05T01:51:01;26;24;
77699;PMS5003;66867;42.658;23.320;2023-06-05T01:52:00;25;24;
77699;PMS5003;66867;42.658;23.320;2023-06-05T01:53:00;27;27;
77699;PMS5003;66867;42.658;23.320;2023-06-05T01:54:00;26;26;
77699;PMS5003;66867;42.658;23.320;2023-06-05T01:55:01;26;26;
77699;PMS5003;66867;42.658;23.320;2023-06-05T01:56:00;25;25;
77699;PMS5003;66867;42.658;23.320;2023-06-05T01:57:00;27;26;
77699;PMS5003;66867;42.658;23.320;2023-06-05T01:58:00;29;29;
77699;PMS5003;66867;42.658;23.320;2023-06-05T01:59:01;29;29;
77699;PMS5003;66867;42.658;23.320;2023-06-05T02:00:00;24;24;
77699;PMS5003;66867;42.658;23.320;2023-06-05T02:01:00;23;23;
77699;PMS5003;66867;42.658;23.320;2023-06-05T02:02:00;27;27;
77699;PMS5003;66867;42.658;23.320;2023-06-05T02:03:00;24;23;
77699;PMS5003;66867;42.658;23.320;2023-06-05T02:04:01;24;23;
77699;PMS5003;66867;42.658;23.320;2023-06-05T02:05:00;25;24;
77699;PMS5003;66867;42.658;23.320;2023-06-05T02:06:00;22;22;
77699;PMS5003;66867;42.658;23.320;2023-06-05T02:07:00;23;23;
77699;PMS5003;66867;42.658;23.320;2023-06-05T02:08:00;24;24;
77699;PMS5003;66867;42.658;23.320;2023-06-05T02:09:00;24;24;
77699;PMS5003;66867;42.658;23.320;2023-06-05T02:10:00;20;20;
77699;PMS5003;66867;42.658;23.320;2023-06-05T02:11:00;24;24;
77699;PMS5003;66867;42.658;23.320;2023-06-05T02:12:00;24;23;
77699;PMS5003;66867;42.658;23.320;2023-06-05T02:13:00;23;23;
77699;PMS5003;66867;42.658;23.320;2023-06-05T02:14:00;22;21;
77699;PMS5003;66867;42.658;23.320;2023-06-05T02:15:00;27;25;
77699;PMS5003;66867;42.658;23.320;2023-06-05T02:16:00;23;22;
77699;PMS5003;66867;42.658;23.320;2023-06-05T02:17:01;24;23;
77699;PMS5003;66867;42.658;23.320;2023-06-05T02:18:00;23;23;
77699;PMS5003;66867;42.658;23.320;2023-06-05T02:19:00;25;25;
77699;PMS5003;66867;42.658;23.320;2023-06-05T02:20:00;28;25;
77699;PMS5003;66867;42.658;23.320;2023-06-05T02:21:00;28;27;
77699;PMS5003;66867;42.658;23.320;2023-06-05T02:22:00;25;24;
77699;PMS5003;66867;42.658;23.320;2023-06-05T02:23:00;23;23;
77699;PMS5003;66867;42.658;23.320;2023-06-05T02:24:01;24;24;
77699;PMS5003;66867;42.658;23.320;2023-06-05T02:25:00;22;22;
77699;PMS5003;66867;42.658;23.320;2023-06-05T02:26:00;24;24;
77699;PMS5003;66867;42.658;23.320;2023-06-05T02:27:00;25;25;
77699;PMS5003;66867;42.658;23.320;2023-06-05T02:28:00;25;24;
77699;PMS5003;66867;42.658;23.320;2023-06-05T02:29:00;23;23;
77699;PMS5003;66867;42.658;23.320;2023-06-05T02:30:00;23;23;
77699;PMS5003;66867;42.658;23.320;2023-06-05T02:31:00;23;23;
77699;PMS5003;66867;42.658;23.320;2023-06-05T02:32:00;28;27;
77699;PMS5003;66867;42.658;23.320;2023-06-05T02:33:00;25;25;
77699;PMS5003;66867;42.658;23.320;2023-06-05T02:34:00;26;25;
77699;PMS5003;66867;42.658;23.320;2023-06-05T02:35:00;27;26;
77699;PMS5003;66867;42.658;23.320;2023-06-05T02:36:00;25;25;
77699;PMS5003;66867;42.658;23.320;2023-06-05T02:37:00;24;22;
77699;PMS5003;66867;42.658;23.320;2023-06-05T02:38:00;23;22;
77699;PMS5003;66867;42.658;23.320;2023-06-05T02:39:01;22;22;
77699;PMS5003;66867;42.658;23.320;2023-06-05T02:40:00;26;24;
77699;PMS5003;66867;42.658;23.320;2023-06-05T02:41:00;27;27;
77699;PMS5003;66867;42.658;23.320;2023-06-05T02:42:00;26;25;
77699;PMS5003;66867;42.658;23.320;2023-06-05T02:43:00;24;24;
77699;PMS5003;66867;42.658;23.320;2023-06-05T02:44:00;25;25;
77699;PMS5003;66867;42.658;23.320;2023-06-05T02:45:00;26;25;
77699;PMS5003;66867;42.658;23.320;2023-06-05T02:46:00;24;24;
77699;PMS5003;66867;42.658;23.320;2023-06-05T02:47:00;26;25;
77699;PMS5003;66867;42.658;23.320;2023-06-05T02:48:00;31;29;
77699;PMS5003;66867;42.658;23.320;2023-06-05T02:49:00;29;28;
77699;PMS5003;66867;42.658;23.320;2023-06-05T02:50:03;24;23;
77699;PMS5003;66867;42.658;23.320;2023-06-05T02:51:00;24;24;
77699;PMS5003;66867;42.658;23.320;2023-06-05T02:52:00;25;25;
77699;PMS5003;66867;42.658;23.320;2023-06-05T02:53:00;24;23;
77699;PMS5003;66867;42.658;23.320;2023-06-05T02:54:00;27;26;
77699;PMS5003;66867;42.658;23.320;2023-06-05T02:55:01;32;30;
77699;PMS5003;66867;42.658;23.320;2023-06-05T02:56:00;27;27;
77699;PMS5003;66867;42.658;23.320;2023-06-05T02:57:00;28;28;
77699;PMS5003;66867;42.658;23.320;2023-06-05T02:58:00;27;26;
77699;PMS5003;66867;42.658;23.320;2023-06-05T02:59:00;25;24;
77699;PMS5003;66867;42.658;23.320;2023-06-05T03:00:00;27;26;
77699;PMS5003;66867;42.658;23.320;2023-06-05T03:01:01;21;21;
77699;PMS5003;66867;42.658;23.320;2023-06-05T03:02:00;30;29;
77699;PMS5003;66867;42.658;23.320;2023-06-05T03:03:00;24;24;
77699;PMS5003;66867;42.658;23.320;2023-06-05T03:04:01;24;24;
77699;PMS5003;66867;42.658;23.320;2023-06-05T03:05:00;29;28;
77699;PMS5003;66867;42.658;23.320;2023-06-05T03:06:01;23;23;
77699;PMS5003;66867;42.658;23.320;2023-06-05T03:07:00;26;26;
77699;PMS5003;66867;42.658;23.320;2023-06-05T03:08:00;25;24;
77699;PMS5003;66867;42.658;23.320;2023-06-05T03:09:01;27;27;
77699;PMS5003;66867;42.658;23.320;2023-06-05T03:10:01;24;24;
77699;PMS5003;66867;42.658;23.320;2023-06-05T03:11:01;25;25;
77699;PMS5003;66867;42.658;23.320;2023-06-05T03:12:00;30;28;
77699;PMS5003;66867;42.658;23.320;2023-06-05T03:13:00;32;30;
77699;PMS5003;66867;42.658;23.320;2023-06-05T03:14:00;23;23;
77699;PMS5003;66867;42.658;23.320;2023-06-05T03:15:00;26;26;
77699;PMS5003;66867;42.658;23.320;2023-06-05T03:16:00;26;26;
77699;PMS5003;66867;42.658;23.320;2023-06-05T03:17:00;26;24;
77699;PMS5003;66867;42.658;23.320;2023-06-05T03:18:00;23;23;
77699;PMS5003;66867;42.658;23.320;2023-06-05T03:19:00;24;23;
77699;PMS5003;66867;42.658;23.320;2023-06-05T03:20:00;26;24;
77699;PMS5003;66867;42.658;23.320;2023-06-05T03:21:00;22;22;
77699;PMS5003;66867;42.658;23.320;2023-06-05T03:22:00;25;24;
77699;PMS5003;66867;42.658;23.320;2023-06-05T03:23:00;25;24;
77699;PMS5003;66867;42.658;23.320;2023-06-05T03:24:00;28;27;
77699;PMS5003;66867;42.658;23.320;2023-06-05T03:25:00;24;23;
77699;PMS5003;66867;42.658;23.320;2023-06-05T03:26:00;21;21;
77699;PMS5003;66867;42.658;23.320;2023-06-05T03:27:00;24;23;
77699;PMS5003;66867;42.658;23.320;2023-06-05T03:28:00;22;21;
77699;PMS5003;66867;42.658;23.320;2023-06-05T03:29:00;26;26;
77699;PMS5003;66867;42.658;23.320;2023-06-05T03:30:00;28;27;
77699;PMS5003;66867;42.658;23.320;2023-06-05T03:31:00;25;24;
77699;PMS5003;66867;42.658;23.320;2023-06-05T03:32:00;26;26;
77699;PMS5003;66867;42.658;23.320;2023-06-05T03:33:00;27;27;
77699;PMS5003;66867;42.658;23.320;2023-06-05T03:34:00;29;28;
77699;PMS5003;66867;42.658;23.320;2023-06-05T03:35:00;30;30;
77699;PMS5003;66867;42.658;23.320;2023-06-05T03:36:00;25;25;
77699;PMS5003;66867;42.658;23.320;2023-06-05T03:37:00;25;25;
77699;PMS5003;66867;42.658;23.320;2023-06-05T03:38:01;24;24;
77699;PMS5003;66867;42.658;23.320;2023-06-05T03:39:00;25;24;
77699;PMS5003;66867;42.658;23.320;2023-06-05T03:40:00;40;35;
77699;PMS5003;66867;42.658;23.320;2023-06-05T03:41:00;35;33;
77699;PMS5003;66867;42.658;23.320;2023-06-05T03:42:00;43;37;
77699;PMS5003;66867;42.658;23.320;2023-06-05T03:43:00;37;33;
77699;PMS5003;66867;42.658;23.320;2023-06-05T03:44:00;34;30;
77699;PMS5003;66867;42.658;23.320;2023-06-05T03:45:00;34;32;
77699;PMS5003;66867;42.658;23.320;2023-06-05T03:46:00;33;32;
77699;PMS5003;66867;42.658;23.320;2023-06-05T03:47:00;30;30;
77699;PMS5003;66867;42.658;23.320;2023-06-05T03:48:00;34;32;
77699;PMS5003;66867;42.658;23.320;2023-06-05T03:49:00;30;30;
77699;PMS5003;66867;42.658;23.320;2023-06-05T03:50:00;48;40;
77699;PMS5003;66867;42.658;23.320;2023-06-05T03:51:00;46;38;
77699;PMS5003;66867;42.658;23.320;2023-06-05T03:52:00;37;34;
77699;PMS5003;66867;42.658;23.320;2023-06-05T03:53:00;39;35;
77699;PMS5003;66867;42.658;23.320;2023-06-05T03:54:00;44;38;
77699;PMS5003;66867;42.658;23.320;2023-06-05T03:55:00;44;38;
77699;PMS5003;66867;42.658;23.320;2023-06-05T03:56:00;35;32;
77699;PMS5003;66867;42.658;23.320;2023-06-05T03:57:00;33;32;
77699;PMS5003;66867;42.658;23.320;2023-06-05T03:58:00;37;34;
77699;PMS5003;66867;42.658;23.320;2023-06-05T03:59:00;35;32;
77699;PMS5003;66867;42.658;23.320;2023-06-05T04:00:00;34;32;
77699;PMS5003;66867;42.658;23.320;2023-06-05T04:01:00;32;30;
77699;PMS5003;66867;42.658;23.320;2023-06-05T04:02:00;37;33;
77699;PMS5003;66867;42.658;23.320;2023-06-05T04:03:00;37;34;
77699;PMS5003;66867;42.658;23.320;2023-06-05T04:04:00;39;35;
77699;PMS5003;66867;42.658;23.320;2023-06-05T04:05:00;37;34;
77699;PMS5003;66867;42.658;23.320;2023-06-05T04:06:00;36;33;
77699;PMS5003;66867;42.658;23.320;2023-06-05T04:07:00;39;35;
77699;PMS5003;66867;42.658;23.320;2023-06-05T04:08:00;39;35;
77699;PMS5003;66867;42.658;23.320;2023-06-05T04:09:00;40;35;
77699;PMS5003;66867;42.658;23.320;2023-06-05T04:10:00;35;33;
77699;PMS5003;66867;42.658;23.320;2023-06-05T04:11:00;33;31;
77699;PMS5003;66867;42.658;23.320;2023-06-05T04:12:00;36;33;
77699;PMS5003;66867;42.658;23.320;2023-06-05T04:13:00;45;38;
77699;PMS5003;66867;42.658;23.320;2023-06-05T04:14:00;42;36;
77699;PMS5003;66867;42.658;23.320;2023-06-05T04:15:01;42;36;
77699;PMS5003;66867;42.658;23.320;2023-06-05T04:16:00;39;35;
77699;PMS5003;66867;42.658;23.320;2023-06-05T04:17:00;42;36;
77699;PMS5003;66867;42.658;23.320;2023-06-05T04:18:00;40;35;
77699;PMS5003;66867;42.658;23.320;2023-06-05T04:19:00;36;33;
77699;PMS5003;66867;42.658;23.320;2023-06-05T04:20:00;38;35;
77699;PMS5003;66867;42.658;23.320;2023-06-05T04:21:00;40;36;
77699;PMS5003;66867;42.658;23.320;2023-06-05T04:22:00;38;34;
77699;PMS5003;66867;42.658;23.320;2023-06-05T04:23:00;38;34;
77699;PMS5003;66867;42.658;23.320;2023-06-05T04:24:00;37;34;
77699;PMS5003;66867;42.658;23.320;2023-06-05T04:25:00;40;36;
77699;PMS5003;66867;42.658;23.320;2023-06-05T04:26:00;43;37;
77699;PMS5003;66867;42.658;23.320;2023-06-05T04:27:00;43;37;
77699;PMS5003;66867;42.658;23.320;2023-06-05T04:28:00;36;33;
77699;PMS5003;66867;42.658;23.320;2023-06-05T04:29:01;45;36;
77699;PMS5003;66867;42.658;23.320;2023-06-05T04:30:00;44;38;
77699;PMS5003;66867;42.658;23.320;2023-06-05T04:31:00;46;38;
77699;PMS5003;66867;42.658;23.320;2023-06-05T04:32:00;42;36;
77699;PMS5003;66867;42.658;23.320;2023-06-05T04:33:00;39;34;
77699;PMS5003;66867;42.658;23.320;2023-06-05T04:34:00;43;36;
77699;PMS5003;66867;42.658;23.320;2023-06-05T04:35:00;43;37;
77699;PMS5003;66867;42.658;23.320;2023-06-05T04:36:00;47;40;
77699;PMS5003;66867;42.658;23.320;2023-06-05T04:37:00;53;44;
77699;PMS5003;66867;42.658;23.320;2023-06-05T04:38:00;47;40;
77699;PMS5003;66867;42.658;23.320;2023-06-05T04:39:01;44;37;
77699;PMS5003;66867;42.658;23.320;2023-06-05T04:40:01;43;37;
77699;PMS5003;66867;42.658;23.320;2023-06-05T04:41:00;47;39;
77699;PMS5003;66867;42.658;23.320;2023-06-05T04:42:00;42;36;
77699;PMS5003;66867;42.658;23.320;2023-06-05T04:43:00;45;39;
77699;PMS5003;66867;42.658;23.320;2023-06-05T04:44:00;42;36;
77699;PMS5003;66867;42.658;23.320;2023-06-05T04:45:03;47;40;
77699;PMS5003;66867;42.658;23.320;2023-06-05T04:46:00;47;40;
77699;PMS5003;66867;42.658;23.320;2023-06-05T04:47:00;45;37;
77699;PMS5003;66867;42.658;23.320;2023-06-05T04:48:00;47;39;
77699;PMS5003;66867;42.658;23.320;2023-06-05T04:49:00;39;35;
77699;PMS5003;66867;42.658;23.320;2023-06-05T04:50:02;45;39;
77699;PMS5003;66867;42.658;23.320;2023-06-05T04:51:00;45;38;
77699;PMS5003;66867;42.658;23.320;2023-06-05T04:52:00;47;40;
77699;PMS5003;66867;42.658;23.320;2023-06-05T04:53:00;48;41;
77699;PMS5003;66867;42.658;23.320;2023-06-05T04:54:00;42;37;
77699;PMS5003;66867;42.658;23.320;2023-06-05T04:55:00;46;38;
77699;PMS5003;66867;42.658;23.320;2023-06-05T04:56:00;42;36;
77699;PMS5003;66867;42.658;23.320;2023-06-05T04:57:00;42;37;
77699;PMS5003;66867;42.658;23.320;2023-06-05T04:58:00;44;37;
77699;PMS5003;66867;42.658;23.320;2023-06-05T04:59:00;41;35;
77699;PMS5003;66867;42.658;23.320;2023-06-05T05:00:00;46;38;
77699;PMS5003;66867;42.658;23.320;2023-06-05T05:01:00;46;39;
77699;PMS5003;66867;42.658;23.320;2023-06-05T05:02:00;48;41;
77699;PMS5003;66867;42.658;23.320;2023-06-05T05:03:00;44;37;
77699;PMS5003;66867;42.658;23.320;2023-06-05T05:04:00;47;40;
77699;PMS5003;66867;42.658;23.320;2023-06-05T05:05:00;41;36;
77699;PMS5003;66867;42.658;23.320;2023-06-05T05:06:00;44;38;
77699;PMS5003;66867;42.658;23.320;2023-06-05T05:07:00;40;36;
77699;PMS5003;66867;42.658;23.320;2023-06-05T05:08:00;44;38;
77699;PMS5003;66867;42.658;23.320;2023-06-05T05:09:00;44;37;
77699;PMS5003;66867;42.658;23.320;2023-06-05T05:10:00;37;33;
77699;PMS5003;66867;42.658;23.320;2023-06-05T05:11:00;40;35;
77699;PMS5003;66867;42.658;23.320;2023-06-05T05:12:00;42;37;
77699;PMS5003;66867;42.658;23.320;2023-06-05T05:13:00;41;36;
77699;PMS5003;66867;42.658;23.320;2023-06-05T05:14:00;44;37;
77699;PMS5003;66867;42.658;23.320;2023-06-05T05:15:01;44;37;
77699;PMS5003;66867;42.658;23.320;2023-06-05T05:16:00;40;36;
77699;PMS5003;66867;42.658;23.320;2023-06-05T05:17:00;47;40;
77699;PMS5003;66867;42.658;23.320;2023-06-05T05:18:00;41;35;
77699;PMS5003;66867;42.658;23.320;2023-06-05T05:19:00;41;35;
77699;PMS5003;66867;42.658;23.320;2023-06-05T05:28:00;40;35;
77699;PMS5003;66867;42.658;23.320;2023-06-05T05:29:00;37;34;
77699;PMS5003;66867;42.658;23.320;2023-06-05T05:30:00;44;38;
77699;PMS5003;66867;42.658;23.320;2023-06-05T05:31:00;41;36;
77699;PMS5003;66867;42.658;23.320;2023-06-05T05:32:00;45;36;
77699;PMS5003;66867;42.658;23.320;2023-06-05T05:33:00;42;37;
77699;PMS5003;66867;42.658;23.320;2023-06-05T05:34:00;47;38;
77699;PMS5003;66867;42.658;23.320;2023-06-05T05:35:00;53;44;
77699;PMS5003;66867;42.658;23.320;2023-06-05T05:36:00;42;37;
77699;PMS5003;66867;42.658;23.320;2023-06-05T05:37:00;37;33;
77699;PMS5003;66867;42.658;23.320;2023-06-05T05:38:00;43;38;
77699;PMS5003;66867;42.658;23.320;2023-06-05T05:39:00;40;35;
77699;PMS5003;66867;42.658;23.320;2023-06-05T05:40:00;35;33;
77699;PMS5003;66867;42.658;23.320;2023-06-05T05:41:00;42;36;
77699;PMS5003;66867;42.658;23.320;2023-06-05T05:42:00;39;34;
77699;PMS5003;66867;42.658;23.320;2023-06-05T05:43:00;35;32;
77699;PMS5003;66867;42.658;23.320;2023-06-05T05:44:00;36;33;
77699;PMS5003;66867;42.658;23.320;2023-06-05T05:45:00;40;35;
77699;PMS5003;66867;42.658;23.320;2023-06-05T05:46:00;37;33;
77699;PMS5003;66867;42.658;23.320;2023-06-05T05:47:00;40;35;
77699;PMS5003;66867;42.658;23.320;2023-06-05T05:48:00;37;34;
77699;PMS5003;66867;42.658;23.320;2023-06-05T05:49:00;41;36;
77699;PMS5003;66867;42.658;23.320;2023-06-05T05:50:00;39;34;
77699;PMS5003;66867;42.658;23.320;2023-06-05T05:51:00;39;35;
77699;PMS5003;66867;42.658;23.320;2023-06-05T05:52:00;36;32;
77699;PMS5003;66867;42.658;23.320;2023-06-05T05:53:00;37;34;
77699;PMS5003;66867;42.658;23.320;2023-06-05T05:54:00;41;35;
77699;PMS5003;66867;42.658;23.320;2023-06-05T06:11:00;32;30;
77699;PMS5003;66867;42.658;23.320;2023-06-05T06:12:00;38;34;
77699;PMS5003;66867;42.658;23.320;2023-06-05T06:13:00;37;33;
77699;PMS5003;66867;42.658;23.320;2023-06-05T06:14:00;33;31;
77699;PMS5003;66867;42.658;23.320;2023-06-05T06:15:00;36;33;
77699;PMS5003;66867;42.658;23.320;2023-06-05T06:16:01;37;33;
77699;PMS5003;66867;42.658;23.320;2023-06-05T06:17:01;37;34;
77699;PMS5003;66867;42.658;23.320;2023-06-05T06:18:00;36;33;
77699;PMS5003;66867;42.658;23.320;2023-06-05T06:19:00;37;33;
77699;PMS5003;66867;42.658;23.320;2023-06-05T06:20:00;36;32;
77699;PMS5003;66867;42.658;23.320;2023-06-05T06:21:00;36;33;
77699;PMS5003;66867;42.658;23.320;2023-06-05T06:22:00;35;33;
77699;PMS5003;66867;42.658;23.320;2023-06-05T06:23:00;32;30;
77699;PMS5003;66867;42.658;23.320;2023-06-05T06:24:00;38;34;
77699;PMS5003;66867;42.658;23.320;2023-06-05T06:25:00;34;32;
77699;PMS5003;66867;42.658;23.320;2023-06-05T06:26:00;29;28;
77699;PMS5003;66867;42.658;23.320;2023-06-05T06:27:00;37;32;
77699;PMS5003;66867;42.658;23.320;2023-06-05T06:28:00;36;33;
77699;PMS5003;66867;42.658;23.320;2023-06-05T06:29:00;34;32;
77699;PMS5003;66867;42.658;23.320;2023-06-05T06:30:00;31;30;
77699;PMS5003;66867;42.658;23.320;2023-06-05T06:31:00;32;30;
77699;PMS5003;66867;42.658;23.320;2023-06-05T06:32:00;32;31;
77699;PMS5003;66867;42.658;23.320;2023-06-05T06:33:00;35;31;
77699;PMS5003;66867;42.658;23.320;2023-06-05T06:34:00;35;31;
77699;PMS5003;66867;42.658;23.320;2023-06-05T06:35:00;31;30;
77699;PMS5003;66867;42.658;23.320;2023-06-05T06:36:00;37;33;
77699;PMS5003;66867;42.658;23.320;2023-06-05T06:37:00;35;32;
77699;PMS5003;66867;42.658;23.320;2023-06-05T06:38:00;32;31;
77699;PMS5003;66867;42.658;23.320;2023-06-05T06:39:00;32;30;
77699;PMS5003;66867;42.658;23.320;2023-06-05T06:40:00;31;30;
77699;PMS5003;66867;42.658;23.320;2023-06-05T06:41:00;31;30;
77699;PMS5003;66867;42.658;23.320;2023-06-05T06:42:00;31;30;
77699;PMS5003;66867;42.658;23.320;2023-06-05T06:43:00;30;30;
77699;PMS5003;66867;42.658;23.320;2023-06-05T06:44:00;31;30;
77699;PMS5003;66867;42.658;23.320;2023-06-05T06:45:00;34;32;
77699;PMS5003;66867;42.658;23.320;2023-06-05T06:46:00;31;30;
77699;PMS5003;66867;42.658;23.320;2023-06-05T06:47:00;30;30;
77699;PMS5003;66867;42.658;23.320;2023-06-05T06:48:00;33;32;
77699;PMS5003;66867;42.658;23.320;2023-06-05T06:49:00;36;33;
77699;PMS5003;66867;42.658;23.320;2023-06-05T06:50:00;36;33;
77699;PMS5003;66867;42.658;23.320;2023-06-05T06:51:00;33;31;
77699;PMS5003;66867;42.658;23.320;2023-06-05T06:52:00;28;27;
77699;PMS5003;66867;42.658;23.320;2023-06-05T06:53:00;29;29;
77699;PMS5003;66867;42.658;23.320;2023-06-05T06:54:00;35;32;
77699;PMS5003;66867;42.658;23.320;2023-06-05T06:55:00;33;31;
77699;PMS5003;66867;42.658;23.320;2023-06-05T06:56:00;30;30;